sensor_id;sensor_type;location;lat;lon;timestamp;P1;durP1;ratioP1;P2;durP2;ratioP2
5285;SDS011;2665;53.112;7.358;2023-05-28T00:00:05;7.67;;;3.03;;
5285;SDS011;2665;53.112;7.358;2023-05-28T00:02:35;8.40;;;3.27;;
5285;SDS011;2665;53.112;7.358;2023-05-28T00:05:01;4.97;;;2.33;;
5285;SDS011;2665;53.112;7.358;2023-05-28T00:07:27;6.27;;;2.80;;
5285;SDS011;2665;53.112;7.358;2023-05-28T00:09:53;6.93;;;3.93;;
5285;SDS011;2665;53.112;7.358;2023-05-28T00:12:20;6.60;;;3.00;;
5285;SDS011;2665;53.112;7.358;2023-05-28T00:14:46;6.00;;;2.87;;
5285;SDS011;2665;53.112;7.358;2023-05-28T00:17:12;7.53;;;2.80;;
5285;SDS011;2665;53.112;7.358;2023-05-28T00:19:39;7.30;;;3.30;;
5285;SDS011;2665;53.112;7.358;2023-05-28T00:22:05;9.93;;;3.30;;
5285;SDS011;2665;53.112;7.358;2023-05-28T00:24:30;4.77;;;2.33;;
5285;SDS011;2665;53.112;7.358;2023-05-28T00:26:56;5.93;;;2.07;;
5285;SDS011;2665;53.112;7.358;2023-05-28T00:29:21;4.70;;;2.63;;
5285;SDS011;2665;53.112;7.358;2023-05-28T00:31:49;4.73;;;2.70;;
5285;SDS011;2665;53.112;7.358;2023-05-28T00:34:16;5.07;;;2.73;;
5285;SDS011;2665;53.112;7.358;2023-05-28T00:36:41;9.27;;;3.10;;
5285;SDS011;2665;53.112;7.358;2023-05-28T00:39:07;4.27;;;2.20;;
5285;SDS011;2665;53.112;7.358;2023-05-28T00:41:32;6.40;;;2.13;;
5285;SDS011;2665;53.112;7.358;2023-05-28T00:44:01;7.63;;;2.53;;
5285;SDS011;2665;53.112;7.358;2023-05-28T00:46:27;4.57;;;2.77;;
5285;SDS011;2665;53.112;7.358;2023-05-28T00:48:54;3.43;;;2.03;;
5285;SDS011;2665;53.112;7.358;2023-05-28T00:51:20;7.10;;;2.50;;
5285;SDS011;2665;53.112;7.358;2023-05-28T00:53:45;8.40;;;2.23;;
5285;SDS011;2665;53.112;7.358;2023-05-28T00:56:11;9.00;;;2.97;;
5285;SDS011;2665;53.112;7.358;2023-05-28T00:58:40;6.00;;;2.90;;
5285;SDS011;2665;53.112;7.358;2023-05-28T01:01:08;8.47;;;2.70;;
5285;SDS011;2665;53.112;7.358;2023-05-28T01:03:37;5.53;;;2.40;;
5285;SDS011;2665;53.112;7.358;2023-05-28T01:06:04;9.10;;;2.77;;
5285;SDS011;2665;53.112;7.358;2023-05-28T01:08:36;7.57;;;3.07;;
5285;SDS011;2665;53.112;7.358;2023-05-28T01:11:03;7.40;;;2.80;;
5285;SDS011;2665;53.112;7.358;2023-05-28T01:13:34;3.77;;;2.70;;
5285;SDS011;2665;53.112;7.358;2023-05-28T01:16:01;3.47;;;2.20;;
5285;SDS011;2665;53.112;7.358;2023-05-28T01:18:27;2.47;;;1.63;;
5285;SDS011;2665;53.112;7.358;2023-05-28T01:20:53;4.93;;;2.07;;
5285;SDS011;2665;53.112;7.358;2023-05-28T01:23:19;5.67;;;2.63;;
5285;SDS011;2665;53.112;7.358;2023-05-28T01:25:50;4.00;;;1.80;;
5285;SDS011;2665;53.112;7.358;2023-05-28T01:28:16;4.00;;;2.43;;
5285;SDS011;2665;53.112;7.358;2023-05-28T01:30:42;3.30;;;1.83;;
5285;SDS011;2665;53.112;7.358;2023-05-28T01:33:11;7.20;;;2.20;;
5285;SDS011;2665;53.112;7.358;2023-05-28T01:35:38;3.40;;;2.07;;
5285;SDS011;2665;53.112;7.358;2023-05-28T01:38:04;5.70;;;2.13;;
5285;SDS011;2665;53.112;7.358;2023-05-28T01:40:31;2.90;;;1.87;;
5285;SDS011;2665;53.112;7.358;2023-05-28T01:42:58;4.00;;;1.60;;
5285;SDS011;2665;53.112;7.358;2023-05-28T01:45:24;3.83;;;2.47;;
5285;SDS011;2665;53.112;7.358;2023-05-28T01:47:51;3.30;;;2.10;;
5285;SDS011;2665;53.112;7.358;2023-05-28T01:50:18;3.63;;;2.13;;
5285;SDS011;2665;53.112;7.358;2023-05-28T01:52:44;3.57;;;2.30;;
5285;SDS011;2665;53.112;7.358;2023-05-28T01:55:09;5.13;;;2.30;;
5285;SDS011;2665;53.112;7.358;2023-05-28T01:57:37;5.80;;;3.30;;
5285;SDS011;2665;53.112;7.358;2023-05-28T02:00:03;4.00;;;2.60;;
5285;SDS011;2665;53.112;7.358;2023-05-28T02:02:30;7.23;;;3.20;;
5285;SDS011;2665;53.112;7.358;2023-05-28T02:04:56;11.53;;;3.27;;
5285;SDS011;2665;53.112;7.358;2023-05-28T02:07:22;8.70;;;3.20;;
5285;SDS011;2665;53.112;7.358;2023-05-28T02:09:48;6.50;;;3.03;;
5285;SDS011;2665;53.112;7.358;2023-05-28T02:12:13;13.03;;;3.10;;
5285;SDS011;2665;53.112;7.358;2023-05-28T02:14:39;8.53;;;2.83;;
5285;SDS011;2665;53.112;7.358;2023-05-28T02:17:05;6.07;;;3.53;;
5285;SDS011;2665;53.112;7.358;2023-05-28T02:19:31;5.97;;;3.20;;
5285;SDS011;2665;53.112;7.358;2023-05-28T02:21:57;6.67;;;3.40;;
5285;SDS011;2665;53.112;7.358;2023-05-28T02:24:23;8.20;;;2.60;;
5285;SDS011;2665;53.112;7.358;2023-05-28T02:26:49;4.23;;;3.10;;
5285;SDS011;2665;53.112;7.358;2023-05-28T02:29:15;6.03;;;2.97;;
5285;SDS011;2665;53.112;7.358;2023-05-28T02:31:41;5.40;;;3.33;;
5285;SDS011;2665;53.112;7.358;2023-05-28T02:34:06;7.30;;;2.87;;
5285;SDS011;2665;53.112;7.358;2023-05-28T02:36:32;4.80;;;3.00;;
5285;SDS011;2665;53.112;7.358;2023-05-28T02:38:58;7.63;;;3.30;;
5285;SDS011;2665;53.112;7.358;2023-05-28T02:41:25;11.33;;;5.10;;
5285;SDS011;2665;53.112;7.358;2023-05-28T02:43:51;12.03;;;3.97;;
5285;SDS011;2665;53.112;7.358;2023-05-28T02:46:16;7.07;;;3.33;;
5285;SDS011;2665;53.112;7.358;2023-05-28T02:48:42;7.50;;;3.30;;
5285;SDS011;2665;53.112;7.358;2023-05-28T02:51:09;13.23;;;3.90;;
5285;SDS011;2665;53.112;7.358;2023-05-28T02:53:35;6.53;;;3.73;;
5285;SDS011;2665;53.112;7.358;2023-05-28T02:56:00;13.43;;;4.20;;
5285;SDS011;2665;53.112;7.358;2023-05-28T02:58:26;15.03;;;4.50;;
5285;SDS011;2665;53.112;7.358;2023-05-28T03:00:53;10.30;;;3.50;;
5285;SDS011;2665;53.112;7.358;2023-05-28T03:03:20;6.70;;;3.33;;
5285;SDS011;2665;53.112;7.358;2023-05-28T03:05:45;8.13;;;3.80;;
5285;SDS011;2665;53.112;7.358;2023-05-28T03:08:11;7.70;;;3.67;;
5285;SDS011;2665;53.112;7.358;2023-05-28T03:10:36;5.23;;;3.10;;
5285;SDS011;2665;53.112;7.358;2023-05-28T03:13:02;12.67;;;3.57;;
5285;SDS011;2665;53.112;7.358;2023-05-28T03:15:27;8.80;;;2.90;;
5285;SDS011;2665;53.112;7.358;2023-05-28T03:17:53;8.33;;;3.70;;
5285;SDS011;2665;53.112;7.358;2023-05-28T03:20:19;10.30;;;3.80;;
5285;SDS011;2665;53.112;7.358;2023-05-28T03:22:46;9.87;;;4.20;;
5285;SDS011;2665;53.112;7.358;2023-05-28T03:25:13;7.63;;;2.97;;
5285;SDS011;2665;53.112;7.358;2023-05-28T03:27:38;9.07;;;3.47;;
5285;SDS011;2665;53.112;7.358;2023-05-28T03:30:05;13.73;;;3.70;;
5285;SDS011;2665;53.112;7.358;2023-05-28T03:32:32;10.30;;;4.03;;
5285;SDS011;2665;53.112;7.358;2023-05-28T03:34:58;5.30;;;3.10;;
5285;SDS011;2665;53.112;7.358;2023-05-28T03:37:24;10.93;;;3.00;;
5285;SDS011;2665;53.112;7.358;2023-05-28T03:39:52;7.10;;;3.27;;
5285;SDS011;2665;53.112;7.358;2023-05-28T03:42:18;12.03;;;3.40;;
5285;SDS011;2665;53.112;7.358;2023-05-28T03:44:43;14.57;;;4.80;;
5285;SDS011;2665;53.112;7.358;2023-05-28T03:47:09;10.53;;;3.87;;
5285;SDS011;2665;53.112;7.358;2023-05-28T03:49:35;8.73;;;4.77;;
5285;SDS011;2665;53.112;7.358;2023-05-28T03:52:00;10.67;;;3.77;;
5285;SDS011;2665;53.112;7.358;2023-05-28T03:54:26;8.30;;;3.80;;
5285;SDS011;2665;53.112;7.358;2023-05-28T03:56:51;9.83;;;4.03;;
5285;SDS011;2665;53.112;7.358;2023-05-28T03:59:17;12.63;;;3.90;;
5285;SDS011;2665;53.112;7.358;2023-05-28T04:01:43;10.83;;;4.00;;
5285;SDS011;2665;53.112;7.358;2023-05-28T04:04:08;6.97;;;4.23;;
5285;SDS011;2665;53.112;7.358;2023-05-28T04:06:34;10.63;;;3.97;;
5285;SDS011;2665;53.112;7.358;2023-05-28T04:09:01;11.27;;;4.03;;
5285;SDS011;2665;53.112;7.358;2023-05-28T04:11:26;11.73;;;4.00;;
5285;SDS011;2665;53.112;7.358;2023-05-28T04:13:55;9.00;;;4.40;;
5285;SDS011;2665;53.112;7.358;2023-05-28T04:16:20;5.10;;;3.17;;
5285;SDS011;2665;53.112;7.358;2023-05-28T04:18:50;10.07;;;4.10;;
5285;SDS011;2665;53.112;7.358;2023-05-28T04:21:17;10.80;;;4.10;;
5285;SDS011;2665;53.112;7.358;2023-05-28T04:23:43;8.10;;;3.30;;
5285;SDS011;2665;53.112;7.358;2023-05-28T04:26:09;5.90;;;3.40;;
5285;SDS011;2665;53.112;7.358;2023-05-28T04:28:34;7.77;;;2.80;;
5285;SDS011;2665;53.112;7.358;2023-05-28T04:31:00;9.90;;;3.50;;
5285;SDS011;2665;53.112;7.358;2023-05-28T04:33:26;8.57;;;4.63;;
5285;SDS011;2665;53.112;7.358;2023-05-28T04:35:55;7.83;;;3.60;;
5285;SDS011;2665;53.112;7.358;2023-05-28T04:38:25;6.93;;;2.73;;
5285;SDS011;2665;53.112;7.358;2023-05-28T04:40:54;8.30;;;3.50;;
5285;SDS011;2665;53.112;7.358;2023-05-28T04:43:20;13.03;;;3.40;;
5285;SDS011;2665;53.112;7.358;2023-05-28T04:45:46;7.67;;;4.03;;
5285;SDS011;2665;53.112;7.358;2023-05-28T04:48:12;10.80;;;3.73;;
5285;SDS011;2665;53.112;7.358;2023-05-28T04:50:37;7.43;;;4.10;;
5285;SDS011;2665;53.112;7.358;2023-05-28T04:53:04;9.33;;;3.67;;
5285;SDS011;2665;53.112;7.358;2023-05-28T04:55:29;10.57;;;4.40;;
5285;SDS011;2665;53.112;7.358;2023-05-28T04:57:55;7.30;;;4.13;;
5285;SDS011;2665;53.112;7.358;2023-05-28T05:00:21;5.77;;;4.00;;
5285;SDS011;2665;53.112;7.358;2023-05-28T05:02:49;6.23;;;3.30;;
5285;SDS011;2665;53.112;7.358;2023-05-28T05:05:15;9.40;;;4.10;;
5285;SDS011;2665;53.112;7.358;2023-05-28T05:07:41;9.70;;;3.27;;
5285;SDS011;2665;53.112;7.358;2023-05-28T05:10:07;8.77;;;4.43;;
5285;SDS011;2665;53.112;7.358;2023-05-28T05:12:34;8.97;;;3.70;;
5285;SDS011;2665;53.112;7.358;2023-05-28T05:15:00;7.97;;;3.70;;
5285;SDS011;2665;53.112;7.358;2023-05-28T05:17:26;8.30;;;4.37;;
5285;SDS011;2665;53.112;7.358;2023-05-28T05:19:51;14.43;;;3.50;;
5285;SDS011;2665;53.112;7.358;2023-05-28T05:22:17;11.20;;;3.57;;
5285;SDS011;2665;53.112;7.358;2023-05-28T05:24:45;6.47;;;3.40;;
5285;SDS011;2665;53.112;7.358;2023-05-28T05:27:11;11.07;;;3.33;;
5285;SDS011;2665;53.112;7.358;2023-05-28T05:29:37;7.33;;;2.80;;
5285;SDS011;2665;53.112;7.358;2023-05-28T05:32:02;7.40;;;2.77;;
5285;SDS011;2665;53.112;7.358;2023-05-28T05:34:28;8.00;;;3.93;;
5285;SDS011;2665;53.112;7.358;2023-05-28T05:36:53;6.90;;;3.60;;
5285;SDS011;2665;53.112;7.358;2023-05-28T05:39:19;9.53;;;3.30;;
5285;SDS011;2665;53.112;7.358;2023-05-28T05:41:45;7.60;;;3.03;;
5285;SDS011;2665;53.112;7.358;2023-05-28T05:44:10;6.53;;;3.30;;
5285;SDS011;2665;53.112;7.358;2023-05-28T05:46:36;6.83;;;3.17;;
5285;SDS011;2665;53.112;7.358;2023-05-28T05:49:01;7.77;;;3.57;;
5285;SDS011;2665;53.112;7.358;2023-05-28T05:51:27;10.33;;;3.90;;
5285;SDS011;2665;53.112;7.358;2023-05-28T05:53:53;8.23;;;3.97;;
5285;SDS011;2665;53.112;7.358;2023-05-28T05:56:18;5.40;;;2.90;;
5285;SDS011;2665;53.112;7.358;2023-05-28T05:58:44;9.33;;;3.20;;
5285;SDS011;2665;53.112;7.358;2023-05-28T06:01:10;17.27;;;3.60;;
5285;SDS011;2665;53.112;7.358;2023-05-28T06:03:36;8.33;;;3.70;;
5285;SDS011;2665;53.112;7.358;2023-05-28T06:06:01;10.83;;;3.60;;
5285;SDS011;2665;53.112;7.358;2023-05-28T06:08:27;8.30;;;3.03;;
5285;SDS011;2665;53.112;7.358;2023-05-28T06:10:52;6.80;;;3.53;;
5285;SDS011;2665;53.112;7.358;2023-05-28T06:13:18;15.30;;;3.50;;
5285;SDS011;2665;53.112;7.358;2023-05-28T06:15:44;6.57;;;2.93;;
5285;SDS011;2665;53.112;7.358;2023-05-28T06:18:10;8.63;;;3.20;;
5285;SDS011;2665;53.112;7.358;2023-05-28T06:20:36;13.40;;;3.30;;
5285;SDS011;2665;53.112;7.358;2023-05-28T06:23:02;12.20;;;3.43;;
5285;SDS011;2665;53.112;7.358;2023-05-28T06:25:27;10.83;;;3.73;;
5285;SDS011;2665;53.112;7.358;2023-05-28T06:27:53;7.13;;;3.07;;
5285;SDS011;2665;53.112;7.358;2023-05-28T06:30:19;7.53;;;4.17;;
5285;SDS011;2665;53.112;7.358;2023-05-28T06:32:44;8.10;;;3.20;;
5285;SDS011;2665;53.112;7.358;2023-05-28T06:35:10;8.30;;;3.47;;
5285;SDS011;2665;53.112;7.358;2023-05-28T06:37:35;6.33;;;3.53;;
5285;SDS011;2665;53.112;7.358;2023-05-28T06:40:01;6.23;;;3.10;;
5285;SDS011;2665;53.112;7.358;2023-05-28T06:42:31;7.00;;;4.30;;
5285;SDS011;2665;53.112;7.358;2023-05-28T06:44:56;7.70;;;3.23;;
5285;SDS011;2665;53.112;7.358;2023-05-28T06:47:24;5.03;;;2.80;;
5285;SDS011;2665;53.112;7.358;2023-05-28T06:49:49;5.40;;;2.77;;
5285;SDS011;2665;53.112;7.358;2023-05-28T06:52:15;6.60;;;3.53;;
5285;SDS011;2665;53.112;7.358;2023-05-28T06:54:41;5.60;;;3.23;;
5285;SDS011;2665;53.112;7.358;2023-05-28T06:57:06;9.30;;;3.07;;
5285;SDS011;2665;53.112;7.358;2023-05-28T06:59:32;5.50;;;3.40;;
5285;SDS011;2665;53.112;7.358;2023-05-28T07:01:58;7.80;;;3.10;;
5285;SDS011;2665;53.112;7.358;2023-05-28T07:04:23;7.13;;;3.17;;
5285;SDS011;2665;53.112;7.358;2023-05-28T07:06:49;8.10;;;3.30;;
5285;SDS011;2665;53.112;7.358;2023-05-28T07:09:14;7.73;;;3.23;;
5285;SDS011;2665;53.112;7.358;2023-05-28T07:11:40;9.93;;;3.20;;
5285;SDS011;2665;53.112;7.358;2023-05-28T07:14:06;7.47;;;4.10;;
5285;SDS011;2665;53.112;7.358;2023-05-28T07:16:31;9.10;;;3.43;;
5285;SDS011;2665;53.112;7.358;2023-05-28T07:18:57;9.07;;;3.10;;
5285;SDS011;2665;53.112;7.358;2023-05-28T07:21:22;6.10;;;2.50;;
5285;SDS011;2665;53.112;7.358;2023-05-28T07:23:49;5.97;;;2.43;;
5285;SDS011;2665;53.112;7.358;2023-05-28T07:26:15;6.33;;;3.20;;
5285;SDS011;2665;53.112;7.358;2023-05-28T07:28:40;12.50;;;2.83;;
5285;SDS011;2665;53.112;7.358;2023-05-28T07:31:06;10.07;;;3.60;;
5285;SDS011;2665;53.112;7.358;2023-05-28T07:33:32;4.80;;;2.73;;
5285;SDS011;2665;53.112;7.358;2023-05-28T07:35:57;7.77;;;2.80;;
5285;SDS011;2665;53.112;7.358;2023-05-28T07:38:23;8.80;;;3.37;;
5285;SDS011;2665;53.112;7.358;2023-05-28T07:40:49;6.33;;;3.10;;
5285;SDS011;2665;53.112;7.358;2023-05-28T07:43:15;8.17;;;2.70;;
5285;SDS011;2665;53.112;7.358;2023-05-28T07:45:40;7.13;;;2.67;;
5285;SDS011;2665;53.112;7.358;2023-05-28T07:48:06;10.70;;;2.97;;
5285;SDS011;2665;53.112;7.358;2023-05-28T07:50:32;5.37;;;3.10;;
5285;SDS011;2665;53.112;7.358;2023-05-28T07:52:58;7.90;;;2.93;;
5285;SDS011;2665;53.112;7.358;2023-05-28T07:55:23;5.13;;;2.43;;
5285;SDS011;2665;53.112;7.358;2023-05-28T07:57:49;9.57;;;3.17;;
5285;SDS011;2665;53.112;7.358;2023-05-28T08:00:15;4.57;;;2.73;;
5285;SDS011;2665;53.112;7.358;2023-05-28T08:02:44;10.73;;;2.83;;
5285;SDS011;2665;53.112;7.358;2023-05-28T08:05:10;9.50;;;3.53;;
5285;SDS011;2665;53.112;7.358;2023-05-28T08:07:35;8.13;;;3.40;;
5285;SDS011;2665;53.112;7.358;2023-05-28T08:10:01;7.03;;;3.13;;
5285;SDS011;2665;53.112;7.358;2023-05-28T08:12:28;12.17;;;3.30;;
5285;SDS011;2665;53.112;7.358;2023-05-28T08:14:53;6.87;;;3.30;;
5285;SDS011;2665;53.112;7.358;2023-05-28T08:17:20;8.00;;;3.13;;
5285;SDS011;2665;53.112;7.358;2023-05-28T08:19:46;8.50;;;3.30;;
5285;SDS011;2665;53.112;7.358;2023-05-28T08:22:12;6.90;;;2.67;;
5285;SDS011;2665;53.112;7.358;2023-05-28T08:24:38;6.10;;;3.40;;
5285;SDS011;2665;53.112;7.358;2023-05-28T08:27:04;5.37;;;2.80;;
5285;SDS011;2665;53.112;7.358;2023-05-28T08:29:30;9.40;;;3.67;;
5285;SDS011;2665;53.112;7.358;2023-05-28T08:31:56;6.63;;;3.00;;
5285;SDS011;2665;53.112;7.358;2023-05-28T08:34:23;6.50;;;3.13;;
5285;SDS011;2665;53.112;7.358;2023-05-28T08:36:48;6.50;;;3.60;;
5285;SDS011;2665;53.112;7.358;2023-05-28T08:39:14;6.20;;;3.13;;
5285;SDS011;2665;53.112;7.358;2023-05-28T08:41:40;6.20;;;4.10;;
5285;SDS011;2665;53.112;7.358;2023-05-28T08:44:05;4.77;;;2.70;;
5285;SDS011;2665;53.112;7.358;2023-05-28T08:46:31;5.67;;;3.03;;
5285;SDS011;2665;53.112;7.358;2023-05-28T08:48:57;6.83;;;2.87;;
5285;SDS011;2665;53.112;7.358;2023-05-28T08:51:23;5.43;;;3.33;;
5285;SDS011;2665;53.112;7.358;2023-05-28T08:53:52;4.90;;;2.73;;
5285;SDS011;2665;53.112;7.358;2023-05-28T08:56:18;6.87;;;3.50;;
5285;SDS011;2665;53.112;7.358;2023-05-28T08:58:46;6.57;;;3.20;;
5285;SDS011;2665;53.112;7.358;2023-05-28T09:01:11;8.30;;;2.87;;
5285;SDS011;2665;53.112;7.358;2023-05-28T09:03:38;6.47;;;3.10;;
5285;SDS011;2665;53.112;7.358;2023-05-28T09:06:04;6.63;;;3.10;;
5285;SDS011;2665;53.112;7.358;2023-05-28T09:08:31;4.53;;;3.50;;
5285;SDS011;2665;53.112;7.358;2023-05-28T09:10:57;5.03;;;2.90;;
5285;SDS011;2665;53.112;7.358;2023-05-28T09:13:33;8.20;;;3.40;;
5285;SDS011;2665;53.112;7.358;2023-05-28T09:15:58;8.50;;;3.47;;
5285;SDS011;2665;53.112;7.358;2023-05-28T09:18:24;7.27;;;3.23;;
5285;SDS011;2665;53.112;7.358;2023-05-28T09:20:50;15.03;;;3.77;;
5285;SDS011;2665;53.112;7.358;2023-05-28T09:23:17;8.30;;;2.87;;
5285;SDS011;2665;53.112;7.358;2023-05-28T09:25:43;4.70;;;2.83;;
5285;SDS011;2665;53.112;7.358;2023-05-28T09:28:12;8.00;;;3.03;;
5285;SDS011;2665;53.112;7.358;2023-05-28T09:30:39;6.20;;;2.87;;
5285;SDS011;2665;53.112;7.358;2023-05-28T09:33:05;4.10;;;2.53;;
5285;SDS011;2665;53.112;7.358;2023-05-28T09:35:32;8.33;;;3.27;;
5285;SDS011;2665;53.112;7.358;2023-05-28T09:38:10;5.37;;;3.10;;
5285;SDS011;2665;53.112;7.358;2023-05-28T09:40:42;6.83;;;3.13;;
5285;SDS011;2665;53.112;7.358;2023-05-28T09:43:09;5.87;;;3.00;;
5285;SDS011;2665;53.112;7.358;2023-05-28T09:45:36;9.13;;;3.67;;
5285;SDS011;2665;53.112;7.358;2023-05-28T09:48:01;5.60;;;2.73;;
5285;SDS011;2665;53.112;7.358;2023-05-28T09:50:28;10.77;;;3.20;;
5285;SDS011;2665;53.112;7.358;2023-05-28T09:52:54;5.60;;;3.00;;
5285;SDS011;2665;53.112;7.358;2023-05-28T09:55:26;5.80;;;2.90;;
5285;SDS011;2665;53.112;7.358;2023-05-28T10:00:48;5.70;;;3.03;;
5285;SDS011;2665;53.112;7.358;2023-05-28T10:03:24;8.10;;;2.47;;
5285;SDS011;2665;53.112;7.358;2023-05-28T10:05:58;5.20;;;2.67;;
5285;SDS011;2665;53.112;7.358;2023-05-28T10:08:26;5.60;;;2.93;;
5285;SDS011;2665;53.112;7.358;2023-05-28T10:10:53;3.57;;;2.60;;
5285;SDS011;2665;53.112;7.358;2023-05-28T10:13:19;5.20;;;2.77;;
5285;SDS011;2665;53.112;7.358;2023-05-28T10:15:46;6.87;;;2.90;;
5285;SDS011;2665;53.112;7.358;2023-05-28T10:18:12;4.70;;;2.47;;
5285;SDS011;2665;53.112;7.358;2023-05-28T10:20:41;4.50;;;2.63;;
5285;SDS011;2665;53.112;7.358;2023-05-28T10:23:08;6.03;;;2.70;;
5285;SDS011;2665;53.112;7.358;2023-05-28T10:25:35;6.37;;;2.77;;
5285;SDS011;2665;53.112;7.358;2023-05-28T10:28:01;3.90;;;1.80;;
5285;SDS011;2665;53.112;7.358;2023-05-28T10:30:36;4.60;;;2.43;;
5285;SDS011;2665;53.112;7.358;2023-05-28T10:33:15;3.20;;;1.73;;
5285;SDS011;2665;53.112;7.358;2023-05-28T10:35:58;5.37;;;2.50;;
5285;SDS011;2665;53.112;7.358;2023-05-28T10:38:28;6.17;;;2.77;;
5285;SDS011;2665;53.112;7.358;2023-05-28T10:41:00;3.80;;;2.40;;
5285;SDS011;2665;53.112;7.358;2023-05-28T10:46:01;5.30;;;3.13;;
5285;SDS011;2665;53.112;7.358;2023-05-28T10:48:29;3.20;;;2.30;;
5285;SDS011;2665;53.112;7.358;2023-05-28T10:50:58;4.83;;;2.53;;
5285;SDS011;2665;53.112;7.358;2023-05-28T10:53:25;4.07;;;2.40;;
5285;SDS011;2665;53.112;7.358;2023-05-28T10:55:52;5.07;;;3.30;;
5285;SDS011;2665;53.112;7.358;2023-05-28T10:58:29;5.10;;;4.40;;
5285;SDS011;2665;53.112;7.358;2023-05-28T11:03:40;3.60;;;1.97;;
5285;SDS011;2665;53.112;7.358;2023-05-28T11:06:11;9.80;;;3.90;;
5285;SDS011;2665;53.112;7.358;2023-05-28T11:08:41;5.30;;;2.50;;
5285;SDS011;2665;53.112;7.358;2023-05-28T11:11:12;6.90;;;4.27;;
5285;SDS011;2665;53.112;7.358;2023-05-28T11:13:41;3.90;;;2.00;;
5285;SDS011;2665;53.112;7.358;2023-05-28T11:16:11;4.93;;;3.40;;
5285;SDS011;2665;53.112;7.358;2023-05-28T11:18:39;3.73;;;2.93;;
5285;SDS011;2665;53.112;7.358;2023-05-28T11:21:05;4.80;;;3.10;;
5285;SDS011;2665;53.112;7.358;2023-05-28T11:23:32;3.87;;;2.50;;
5285;SDS011;2665;53.112;7.358;2023-05-28T11:25:59;3.93;;;3.00;;
5285;SDS011;2665;53.112;7.358;2023-05-28T11:28:25;7.27;;;2.50;;
5285;SDS011;2665;53.112;7.358;2023-05-28T11:30:51;4.10;;;2.20;;
5285;SDS011;2665;53.112;7.358;2023-05-28T11:33:20;4.07;;;2.60;;
5285;SDS011;2665;53.112;7.358;2023-05-28T11:35:54;5.33;;;2.40;;
5285;SDS011;2665;53.112;7.358;2023-05-28T11:38:21;6.10;;;2.40;;
5285;SDS011;2665;53.112;7.358;2023-05-28T11:40:47;4.00;;;2.60;;
5285;SDS011;2665;53.112;7.358;2023-05-28T11:43:12;3.60;;;2.67;;
5285;SDS011;2665;53.112;7.358;2023-05-28T11:45:38;7.43;;;2.20;;
5285;SDS011;2665;53.112;7.358;2023-05-28T11:48:10;3.10;;;2.30;;
5285;SDS011;2665;53.112;7.358;2023-05-28T11:50:37;3.60;;;2.80;;
5285;SDS011;2665;53.112;7.358;2023-05-28T11:53:02;6.77;;;3.50;;
5285;SDS011;2665;53.112;7.358;2023-05-28T11:55:28;3.40;;;2.60;;
5285;SDS011;2665;53.112;7.358;2023-05-28T11:57:53;6.50;;;2.63;;
5285;SDS011;2665;53.112;7.358;2023-05-28T12:00:28;3.47;;;2.50;;
5285;SDS011;2665;53.112;7.358;2023-05-28T12:02:56;4.77;;;2.40;;
5285;SDS011;2665;53.112;7.358;2023-05-28T12:05:22;3.53;;;2.30;;
5285;SDS011;2665;53.112;7.358;2023-05-28T12:07:48;4.43;;;2.73;;
5285;SDS011;2665;53.112;7.358;2023-05-28T12:10:17;10.60;;;2.57;;
5285;SDS011;2665;53.112;7.358;2023-05-28T12:12:47;4.10;;;2.20;;
5285;SDS011;2665;53.112;7.358;2023-05-28T12:15:16;3.20;;;2.00;;
5285;SDS011;2665;53.112;7.358;2023-05-28T12:17:43;5.10;;;2.23;;
5285;SDS011;2665;53.112;7.358;2023-05-28T12:22:40;5.07;;;1.93;;
5285;SDS011;2665;53.112;7.358;2023-05-28T12:25:06;5.03;;;2.43;;
5285;SDS011;2665;53.112;7.358;2023-05-28T12:27:32;3.93;;;2.40;;
5285;SDS011;2665;53.112;7.358;2023-05-28T12:29:58;5.03;;;1.70;;
5285;SDS011;2665;53.112;7.358;2023-05-28T12:32:24;4.30;;;2.00;;
5285;SDS011;2665;53.112;7.358;2023-05-28T12:34:51;3.33;;;2.10;;
5285;SDS011;2665;53.112;7.358;2023-05-28T12:37:20;4.30;;;2.10;;
5285;SDS011;2665;53.112;7.358;2023-05-28T12:39:46;3.70;;;2.33;;
5285;SDS011;2665;53.112;7.358;2023-05-28T12:42:11;3.30;;;1.90;;
5285;SDS011;2665;53.112;7.358;2023-05-28T12:44:37;4.30;;;1.70;;
5285;SDS011;2665;53.112;7.358;2023-05-28T12:47:03;5.10;;;1.73;;
5285;SDS011;2665;53.112;7.358;2023-05-28T12:49:28;3.73;;;3.17;;
5285;SDS011;2665;53.112;7.358;2023-05-28T12:51:54;3.43;;;1.83;;
5285;SDS011;2665;53.112;7.358;2023-05-28T12:54:20;3.40;;;1.80;;
5285;SDS011;2665;53.112;7.358;2023-05-28T12:56:46;3.60;;;1.87;;
5285;SDS011;2665;53.112;7.358;2023-05-28T12:59:25;2.10;;;1.47;;
5285;SDS011;2665;53.112;7.358;2023-05-28T13:01:52;3.87;;;1.20;;
5285;SDS011;2665;53.112;7.358;2023-05-28T13:04:19;3.00;;;1.43;;
5285;SDS011;2665;53.112;7.358;2023-05-28T13:06:46;5.53;;;1.43;;
5285;SDS011;2665;53.112;7.358;2023-05-28T13:09:12;4.13;;;1.70;;
5285;SDS011;2665;53.112;7.358;2023-05-28T13:11:40;4.40;;;1.60;;
5285;SDS011;2665;53.112;7.358;2023-05-28T13:14:07;3.27;;;1.47;;
5285;SDS011;2665;53.112;7.358;2023-05-28T13:16:33;3.40;;;1.80;;
5285;SDS011;2665;53.112;7.358;2023-05-28T13:19:00;3.07;;;1.00;;
5285;SDS011;2665;53.112;7.358;2023-05-28T13:21:29;2.20;;;1.17;;
5285;SDS011;2665;53.112;7.358;2023-05-28T13:24:03;3.13;;;1.30;;
5285;SDS011;2665;53.112;7.358;2023-05-28T13:26:32;3.50;;;1.43;;
5285;SDS011;2665;53.112;7.358;2023-05-28T13:28:59;2.67;;;1.43;;
5285;SDS011;2665;53.112;7.358;2023-05-28T13:31:27;2.53;;;1.13;;
5285;SDS011;2665;53.112;7.358;2023-05-28T13:33:52;3.13;;;1.50;;
5285;SDS011;2665;53.112;7.358;2023-05-28T13:36:18;3.30;;;1.20;;
5285;SDS011;2665;53.112;7.358;2023-05-28T13:38:44;3.90;;;1.50;;
5285;SDS011;2665;53.112;7.358;2023-05-28T13:41:12;4.70;;;1.33;;
5285;SDS011;2665;53.112;7.358;2023-05-28T13:43:39;3.73;;;1.40;;
5285;SDS011;2665;53.112;7.358;2023-05-28T13:46:04;3.43;;;1.70;;
5285;SDS011;2665;53.112;7.358;2023-05-28T13:48:30;3.33;;;1.23;;
5285;SDS011;2665;53.112;7.358;2023-05-28T13:50:56;4.43;;;1.50;;
5285;SDS011;2665;53.112;7.358;2023-05-28T13:53:22;2.87;;;1.37;;
5285;SDS011;2665;53.112;7.358;2023-05-28T13:55:48;4.07;;;1.47;;
5285;SDS011;2665;53.112;7.358;2023-05-28T13:58:14;2.63;;;1.60;;
5285;SDS011;2665;53.112;7.358;2023-05-28T14:00:40;4.50;;;1.67;;
5285;SDS011;2665;53.112;7.358;2023-05-28T14:03:06;3.17;;;1.77;;
5285;SDS011;2665;53.112;7.358;2023-05-28T14:05:33;2.30;;;1.40;;
5285;SDS011;2665;53.112;7.358;2023-05-28T14:08:01;4.83;;;1.73;;
5285;SDS011;2665;53.112;7.358;2023-05-28T14:10:27;4.30;;;1.87;;
5285;SDS011;2665;53.112;7.358;2023-05-28T14:12:53;6.93;;;2.13;;
5285;SDS011;2665;53.112;7.358;2023-05-28T14:15:19;4.07;;;1.40;;
5285;SDS011;2665;53.112;7.358;2023-05-28T14:17:44;3.07;;;1.83;;
5285;SDS011;2665;53.112;7.358;2023-05-28T14:20:10;2.97;;;2.10;;
5285;SDS011;2665;53.112;7.358;2023-05-28T14:22:36;3.97;;;1.80;;
5285;SDS011;2665;53.112;7.358;2023-05-28T14:25:02;4.00;;;1.73;;
5285;SDS011;2665;53.112;7.358;2023-05-28T14:27:28;3.87;;;2.27;;
5285;SDS011;2665;53.112;7.358;2023-05-28T14:29:53;2.80;;;1.33;;
5285;SDS011;2665;53.112;7.358;2023-05-28T14:32:19;4.10;;;1.47;;
5285;SDS011;2665;53.112;7.358;2023-05-28T14:34:45;2.77;;;1.57;;
5285;SDS011;2665;53.112;7.358;2023-05-28T14:37:11;3.10;;;1.70;;
5285;SDS011;2665;53.112;7.358;2023-05-28T14:39:37;7.70;;;2.30;;
5285;SDS011;2665;53.112;7.358;2023-05-28T14:42:02;3.57;;;1.70;;
5285;SDS011;2665;53.112;7.358;2023-05-28T14:44:28;3.90;;;1.80;;
5285;SDS011;2665;53.112;7.358;2023-05-28T14:46:55;2.80;;;1.60;;
5285;SDS011;2665;53.112;7.358;2023-05-28T14:49:21;4.13;;;1.67;;
5285;SDS011;2665;53.112;7.358;2023-05-28T14:51:47;5.37;;;1.50;;
5285;SDS011;2665;53.112;7.358;2023-05-28T14:54:12;3.17;;;1.60;;
5285;SDS011;2665;53.112;7.358;2023-05-28T14:56:38;2.03;;;1.27;;
5285;SDS011;2665;53.112;7.358;2023-05-28T14:59:04;4.33;;;2.10;;
5285;SDS011;2665;53.112;7.358;2023-05-28T15:01:29;3.10;;;1.20;;
5285;SDS011;2665;53.112;7.358;2023-05-28T15:03:55;3.90;;;1.60;;
5285;SDS011;2665;53.112;7.358;2023-05-28T15:06:20;3.57;;;2.20;;
5285;SDS011;2665;53.112;7.358;2023-05-28T15:08:46;3.00;;;1.30;;
5285;SDS011;2665;53.112;7.358;2023-05-28T15:11:13;4.07;;;1.83;;
5285;SDS011;2665;53.112;7.358;2023-05-28T15:13:40;3.43;;;1.50;;
5285;SDS011;2665;53.112;7.358;2023-05-28T15:16:06;6.47;;;1.93;;
5285;SDS011;2665;53.112;7.358;2023-05-28T15:18:32;6.07;;;1.93;;
5285;SDS011;2665;53.112;7.358;2023-05-28T15:20:57;4.50;;;1.50;;